weather.gov     
National Weather Service

Terminal Aerodrome Forecast
NWS Homepage
This page is being discontinued on March 12, 2014.
The same data is available at this site. Please update your bookmarks.
Thank you, and we apologize for the inconvenience.
Please send an email to SR-SRH.Webmaster@noaa.gov with any concerns.


Current Version
Previous Version:    01  02  03  04  05  06  07  08  09  10  11  12  13  14  15  16  17  18  19  20  21  22  23  
[Printable]
049
FTUS44 KOUN 201738
TAFWWR
TAF
KWWR 201738Z 2018/2118 19013G21KT P6SM SCT040 SCT100
      TEMPO 2020/2023 5SM -TSRA BR BKN025CB
     FM210100 17012KT P6SM BKN040 PROB30 2104/2108 -TSRA BKN025CB
     FM210800 24007KT P6SM BKN020
     FM211200 36013KT P6SM BKN100=


049
FTUS44 KOUN 201738
TAFWWR
TAF
KWWR 201738Z 2018/2118 19013G21KT P6SM SCT040 SCT100
      TEMPO 2020/2023 5SM -TSRA BR BKN025CB
     FM210100 17012KT P6SM BKN040 PROB30 2104/2108 -TSRA BKN025CB
     FM210800 24007KT P6SM BKN020
     FM211200 36013KT P6SM BKN100=




U.S. Dept. of Commerce
NOAA National Weather Service
1325 East West Highway
Silver Spring, MD 20910
E-mail: w-nws.webmaster@noaa.gov
Page last modified: May 16, 2007
NATIONAL WEATHER SERVICE: for Safety, for Work, for Fun - FOR LIFE